Time;durP1;ratioP1;P1;durP2;ratioP2;P2;SDS_P1;SDS_P2;PMS_P1;PMS_P2;Temp;Humidity;BMP_temperature;BMP_pressure;BME280_temperature;BME280_humidity;BME280_pressure;Samples;Min_cycle;Max_cycle;Signal;HPM_P1;HPM_P2
2022/03/28 00:02:18;;;;;;;;;44.50;38.00;;;;;4.34;67.23;100725.53;6315685;20;2866303;-54
2022/03/28 00:04:47;;;;;;;;;31.50;28.00;;;;;4.01;68.63;100722.63;6281681;20;2846087;-49
2022/03/28 00:07:16;;;;;;;;;46.50;38.50;;;;;4.49;67.85;100719.94;6283163;20;2882586;-52
2022/03/28 00:09:45;;;;;;;;;36.50;34.00;;;;;4.39;67.56;100723.69;6312103;20;2858591;-49
2022/03/28 00:12:14;;;;;;;;;56.50;42.00;;;;;4.92;66.58;100721.69;6283283;20;2873236;-48
2022/03/28 00:14:43;;;;;;;;;48.33;37.67;;;;;4.59;66.05;100726.81;6282710;20;2873263;-49
2022/03/28 00:17:13;;;;;;;;;54.33;36.33;;;;;4.05;67.75;100719.00;6312031;20;3640865;-52
2022/03/28 00:19:41;;;;;;;;;33.00;31.50;;;;;3.88;68.72;100718.44;6311335;20;2500353;-50
2022/03/28 00:22:11;;;;;;;;;60.33;40.33;;;;;3.70;69.48;100717.84;6282840;20;3655579;-49
2022/03/28 00:24:41;;;;;;;;;50.00;36.67;;;;;3.77;68.77;100717.75;6313921;20;3635636;-48
2022/03/28 00:27:11;;;;;;;;;44.33;39.33;;;;;3.83;68.06;100715.84;6314394;20;3602294;-50
2022/03/28 00:29:40;;;;;;;;;48.33;38.67;;;;;3.62;69.62;100714.44;6310565;20;3625214;-49
2022/03/28 00:32:11;;;;;;;;;52.33;39.33;;;;;3.71;69.16;100705.44;6312614;20;3629459;-48
2022/03/28 00:34:40;;;;;;;;;48.00;43.50;;;;;3.39;70.02;100703.31;6312999;20;2848286;-48
2022/03/28 00:37:09;;;;;;;;;54.00;40.00;;;;;3.90;68.97;100692.72;6280400;20;2498168;-49
2022/03/28 00:39:38;;;;;;;;;54.00;43.00;;;;;3.79;69.03;100692.00;6281738;20;2867031;-53
2022/03/28 00:42:07;;;;;;;;;52.50;44.50;;;;;3.71;69.37;100686.84;6280912;20;2874223;-49
2022/03/28 00:44:35;;;;;;;;;63.00;54.00;;;;;3.68;69.73;100690.41;6280690;20;2500274;-49
2022/03/28 00:47:04;;;;;;;;;53.50;44.50;;;;;3.45;69.53;100684.63;6282845;20;2868073;-48
2022/03/28 00:49:32;;;;;;;;;57.00;44.00;;;;;3.72;69.40;100673.53;6277171;20;2487958;-50
2022/03/28 00:52:01;;;;;;;;;69.50;49.50;;;;;3.58;70.39;100674.66;6281374;20;2875251;-49
2022/03/28 00:54:31;;;;;;;;;56.00;43.33;;;;;4.14;69.34;100676.31;6278632;20;2877422;-49
2022/03/28 00:57:00;;;;;;;;;51.50;43.00;;;;;4.57;66.62;100674.56;6310313;20;2863930;-47
2022/03/28 00:59:32;;;;;;;;;61.00;44.00;;;;;4.02;68.49;100670.34;6280943;20;2861780;-48
2022/03/28 01:02:02;;;;;;;;;54.00;43.00;;;;;4.09;68.19;100672.88;6281950;20;2859714;-51
2022/03/28 01:04:32;;;;;;;;;65.33;48.33;;;;;3.65;69.89;100677.19;6280752;20;2877412;-47
2022/03/28 01:07:02;;;;;;;;;61.00;45.67;;;;;3.55;69.99;100678.25;6311419;20;2876336;-47
2022/03/28 01:09:31;;;;;;;;;41.00;40.00;;;;;3.20;69.62;100671.75;6313010;20;2850284;-49
2022/03/28 01:12:00;;;;;;;;;53.00;39.50;;;;;3.06;68.56;100665.78;6279463;20;2500456;-51
2022/03/28 01:14:30;;;;;;;;;41.33;33.00;;;;;2.60;69.25;100663.78;6279545;20;2856574;-49
2022/03/28 01:19:46;;;;;;;;;43.50;36.00;;;;;2.66;70.06;100661.06;6279193;20;2866965;-49
2022/03/28 01:22:16;;;;;;;;;51.33;40.00;;;;;2.84;68.75;100660.81;6281620;20;3635764;-51
2022/03/28 01:24:47;;;;;;;;;52.33;39.00;;;;;2.65;69.59;100656.63;6312774;20;3641952;-51
2022/03/28 01:27:16;;;;;;;;;50.00;40.50;;;;;2.69;70.11;100655.72;6313421;20;2878367;-51
2022/03/28 01:29:46;;;;;;;;;57.33;44.67;;;;;2.80;69.67;100661.72;6277754;20;2875286;-48
2022/03/28 01:32:14;;;;;;;;;63.50;51.00;;;;;2.32;70.49;100652.66;6307964;20;2500290;-48
2022/03/28 01:34:42;;;;;;;;;27.50;19.50;;;;;2.19;72.42;100660.75;6281044;20;2861800;-47
2022/03/28 01:37:11;;;;;;;;;63.33;44.00;;;;;2.53;70.71;100654.16;6280520;20;2868036;-50
2022/03/28 01:39:40;;;;;;;;;50.00;41.50;;;;;2.27;72.24;100647.41;6309537;20;2850315;-50
2022/03/28 01:42:09;;;;;;;;;51.50;43.00;;;;;2.34;71.58;100643.81;6282378;20;2872145;-47
2022/03/28 01:44:38;;;;;;;;;49.00;41.67;;;;;2.30;72.21;100642.06;6280219;20;2870113;-51
2022/03/28 01:47:06;;;;;;;;;59.50;47.00;;;;;2.85;70.02;100646.63;6308765;20;2496237;-48
2022/03/28 01:49:36;;;;;;;;;69.67;49.33;;;;;2.27;71.54;100635.94;6280037;20;2885816;-53
2022/03/28 01:52:06;;;;;;;;;61.67;47.33;;;;;2.31;71.82;100638.50;6311970;20;2871143;-55
2022/03/28 01:54:35;;;;;;;;;69.00;49.00;;;;;2.23;71.57;100642.16;6311030;20;2871150;-55
2022/03/28 01:57:10;;;;;;;;;64.50;45.00;;;;;2.27;72.40;100636.81;6278561;20;2499224;-54
2022/03/28 01:59:38;;;;;;;;;60.50;48.50;;;;;2.23;72.26;100635.09;6276592;20;2858575;-56
2022/03/28 02:02:07;;;;;;;;;60.00;48.50;;;;;2.08;72.68;100637.91;6281301;20;2866957;-55
2022/03/28 02:04:36;;;;;;;;;56.50;41.00;;;;;2.08;71.43;100630.88;6278984;20;2881539;-54
2022/03/28 02:07:04;;;;;;;;;67.50;52.00;;;;;1.96;72.72;100634.50;6273267;20;2499275;-55
2022/03/28 02:09:33;;;;;;;;;72.00;52.50;;;;;2.18;71.76;100631.59;6279901;20;2879399;-54
2022/03/28 02:12:02;;;;;;;;;59.50;44.00;;;;;1.69;72.51;100626.88;6280770;20;2863767;-52
2022/03/28 02:14:31;;;;;;;;;44.33;39.33;;;;;1.96;71.72;100631.00;6278849;20;2875375;-55
2022/03/28 02:16:59;;;;;;;;;38.00;35.00;;;;;1.36;73.56;100628.94;6308175;20;2508714;-51
2022/03/28 02:19:28;;;;;;;;;48.50;40.00;;;;;1.61;71.01;100619.00;6277796;20;2878379;-55
2022/03/28 02:21:57;;;;;;;;;41.00;38.50;;;;;1.26;73.28;100627.25;6280069;20;2858689;-53
2022/03/28 02:24:25;;;;;;;;;29.00;26.50;;;;;1.25;73.75;100625.50;6276488;20;2500316;-52
2022/03/28 02:26:54;;;;;;;;;34.50;28.00;;;;;1.10;73.46;100624.72;6276912;20;2500320;-51
2022/03/28 02:29:23;;;;;;;;;49.00;35.00;;;;;1.38;74.07;100626.28;6279230;20;2752344;-52
2022/03/28 02:31:52;;;;;;;;;54.33;41.33;;;;;1.63;73.29;100616.34;6311811;20;2880540;-51
2022/03/28 02:34:21;;;;;;;;;55.50;43.50;;;;;2.09;72.21;100616.72;6311207;20;2851380;-52
2022/03/28 02:36:49;;;;;;;;;55.00;43.00;;;;;2.26;71.59;100626.22;6274714;20;2492972;-47
2022/03/28 02:39:18;;;;;;;;;48.00;43.33;;;;;2.18;71.52;100627.19;6279315;20;3598302;-47
2022/03/28 02:41:46;;;;;;;;;49.00;43.00;;;;;1.86;73.04;100634.63;6276596;20;2503422;-47
2022/03/28 02:44:14;;;;;;;;;49.00;41.00;;;;;1.59;73.12;100625.22;6277796;20;2508637;-47
2022/03/28 02:46:45;;;;;;;;;34.67;27.00;;;;;1.48;72.45;100622.66;6279016;20;3578344;-47
2022/03/28 02:49:15;;;;;;;;;37.00;34.50;;;;;2.33;69.75;100623.47;6279734;20;2850284;-47
2022/03/28 02:51:44;;;;;;;;;46.00;35.00;;;;;2.04;70.02;100622.97;6280014;20;2875462;-49
2022/03/28 02:54:12;;;;;;;;;39.00;36.00;;;;;1.59;71.81;100620.78;6278377;20;2857542;-47
2022/03/28 02:56:41;;;;;;;;;42.00;36.50;;;;;0.97;73.85;100617.78;6280102;20;2871206;-51
2022/03/28 02:59:12;;;;;;;;;53.50;43.50;;;;;0.95;73.59;100616.94;6283506;20;2856609;-51
2022/03/28 03:01:41;;;;;;;;;38.50;31.00;;;;;1.10;73.63;100616.78;6286319;20;2847116;-49
2022/03/28 03:04:09;;;;;;;;;34.00;30.00;;;;;0.94;73.90;100615.16;6282374;20;2848192;-52
2022/03/28 03:06:37;;;;;;;;;29.00;26.50;;;;;1.43;72.38;100604.19;6283021;20;2500254;-55
2022/03/28 03:09:05;;;;;;;;;43.00;36.00;;;;;0.96;73.42;100612.53;6282592;20;2500309;-53
2022/03/28 03:11:32;;;;;;;;;30.00;26.50;;;;;1.23;73.09;100604.34;6283497;20;2500361;-54
2022/03/28 03:14:00;;;;;;;;;42.00;32.00;;;;;1.32;73.75;100608.72;6278533;20;2500793;-52
2022/03/28 03:16:28;;;;;;;;;44.00;40.00;;;;;1.52;72.40;100614.66;6279458;20;2500272;-50
2022/03/28 03:18:58;;;;;;;;;53.00;36.00;;;;;1.23;73.70;100614.06;6282408;20;2886867;-52
2022/03/28 03:21:26;;;;;;;;;46.00;37.00;;;;;0.96;74.07;100607.22;6312700;20;2500336;-51
2022/03/28 03:23:54;;;;;;;;;45.50;37.00;;;;;0.83;74.82;100602.03;6281259;20;2868015;-53
2022/03/28 03:26:22;;;;;;;;;39.50;34.50;;;;;1.05;74.59;100608.06;6281848;20;2500257;-54
2022/03/28 03:28:50;;;;;;;;;39.50;35.00;;;;;1.06;74.81;100599.22;6279351;20;2500272;-55
2022/03/28 03:31:19;;;;;;;;;45.00;37.50;;;;;1.53;73.14;100597.91;6287443;20;2872239;-53
2022/03/28 03:33:48;;;;;;;;;36.50;28.50;;;;;1.19;73.94;100604.41;6283334;20;2857576;-52
2022/03/28 03:36:17;;;;;;;;;37.00;32.67;;;;;1.24;74.77;100597.31;6284119;20;3586760;-55
2022/03/28 03:38:46;;;;;;;;;43.00;33.00;;;;;1.37;73.97;100595.41;6284219;20;2853478;-55
2022/03/28 03:41:15;;;;;;;;;41.50;33.00;;;;;1.74;73.18;100594.16;6285324;20;2867983;-56
2022/03/28 03:43:44;;;;;;;;;38.50;33.00;;;;;1.50;73.67;100594.41;6280913;20;2500305;-51
2022/03/28 03:46:12;;;;;;;;;39.00;29.00;;;;;1.61;73.47;100602.25;6279807;20;2500271;-54
2022/03/28 03:48:40;;;;;;;;;31.00;30.00;;;;;1.50;72.98;100595.31;6280897;20;2500280;-54
2022/03/28 03:51:09;;;;;;;;;39.67;32.67;;;;;1.28;74.83;100601.69;6283326;20;3585640;-55
2022/03/28 03:53:36;;;;;;;;;32.00;27.50;;;;;1.09;75.02;100588.59;6281680;20;2863876;-55
2022/03/28 03:56:06;;;;;;;;;61.33;44.67;;;;;0.53;74.76;100592.56;6280458;20;2868052;-52
2022/03/28 03:58:35;;;;;;;;;41.00;35.00;;;;;0.73;73.02;100594.19;6315103;20;2855552;-52
2022/03/28 04:01:04;;;;;;;;;54.50;34.00;;;;;0.43;72.78;100586.44;6278207;20;2877463;-45
2022/03/28 04:03:33;;;;;;;;;36.00;29.50;;;;;0.67;73.22;100589.81;6280594;20;2862822;-47
2022/03/28 04:06:03;;;;;;;;;47.75;37.75;;;;;1.00;71.33;100583.41;6283262;20;3615823;-45
2022/03/28 04:08:31;;;;;;;;;40.50;33.50;;;;;1.04;70.77;100593.06;6309461;20;2500393;-46
2022/03/28 04:11:00;;;;;;;;;51.00;38.00;;;;;1.17;71.80;100587.69;6279352;20;2878449;-45
2022/03/28 04:13:28;;;;;;;;;41.50;30.00;;;;;0.97;72.62;100593.97;6282056;20;2500400;-44
2022/03/28 04:15:55;;;;;;;;;47.50;38.00;;;;;1.29;71.73;100587.53;6277533;20;2500525;-47
2022/03/28 04:18:25;;;;;;;;;37.00;35.00;;;;;1.10;72.61;100593.00;6282331;20;2854465;-44
2022/03/28 04:20:56;;;;;;;;;56.50;41.00;;;;;1.07;72.48;100590.38;6282805;20;2889025;-47
2022/03/28 04:23:26;;;;;;;;;39.00;34.50;;;;;0.99;72.79;100589.56;6278494;20;2506561;-44
2022/03/28 04:25:54;;;;;;;;;72.00;56.00;;;;;1.07;73.60;100584.22;6280087;20;2500320;-44
2022/03/28 04:28:23;;;;;;;;;59.50;47.50;;;;;1.00;72.75;100578.13;6283249;20;2861705;-44
2022/03/28 04:30:52;;;;;;;;;58.00;40.67;;;;;0.59;73.81;100589.84;6283736;20;2896091;-45
2022/03/28 04:33:21;;;;;;;;;61.00;45.00;;;;;0.36;74.33;100578.56;6315391;20;2848379;-47
2022/03/28 04:35:50;;;;;;;;;47.00;42.00;;;;;0.68;74.43;100583.63;6277303;20;2502773;-51
2022/03/28 04:38:19;;;;;;;;;48.00;41.00;;;;;1.00;72.57;100571.94;6284371;20;2857562;-53
2022/03/28 04:40:48;;;;;;;;;53.00;39.00;;;;;0.44;73.28;100571.44;6282005;20;2880463;-52
2022/03/28 04:43:17;;;;;;;;;42.50;29.00;;;;;0.53;73.15;100574.06;6314613;20;2862430;-50
2022/03/28 04:45:48;;;;;;;;;59.00;42.00;;;;;0.46;72.29;100577.63;6280422;20;2886833;-50
2022/03/28 04:48:18;;;;;;;;;63.67;37.67;;;;;0.15;72.32;100580.41;6314030;20;3647116;-51
2022/03/28 04:50:46;;;;;;;;;41.00;35.50;;;;;0.47;71.45;100581.13;6314416;20;2865940;-48
2022/03/28 04:53:15;;;;;;;;;45.00;38.00;;;;;0.54;71.22;100588.13;6279283;20;2500283;-51
2022/03/28 04:55:44;;;;;;;;;52.00;42.00;;;;;0.14;71.25;100581.31;6279435;20;2878488;-51
2022/03/28 04:58:13;;;;;;;;;63.50;49.50;;;;;0.26;71.51;100576.84;6283211;20;2859632;-50
2022/03/28 05:00:42;;;;;;;;;65.00;45.50;;;;;0.08;71.69;100573.41;6282196;20;2887764;-47
2022/03/28 05:03:10;;;;;;;;;59.50;43.00;;;;;0.93;70.18;100580.81;6275149;20;2500239;-46
2022/03/28 05:05:40;;;;;;;;;66.00;44.00;;;;;0.95;70.55;100582.56;6281258;20;3635634;-47
2022/03/28 05:08:10;;;;;;;;;49.00;41.00;;;;;1.15;70.03;100576.22;6311122;20;2854874;-49
2022/03/28 05:10:37;;;;;;;;;56.00;43.00;;;;;1.25;70.16;100577.91;6278004;20;2508597;-48
2022/03/28 05:13:06;;;;;;;;;61.50;45.00;;;;;1.83;68.10;100582.59;6281710;20;2871112;-49
2022/03/28 05:15:35;;;;;;;;;60.00;46.00;;;;;1.75;67.02;100576.50;6279733;20;2872200;-48
2022/03/28 05:18:04;;;;;;;;;56.50;41.00;;;;;1.39;69.62;100573.34;6280551;20;2878409;-50
2022/03/28 05:20:33;;;;;;;;;61.00;52.00;;;;;2.32;66.59;100576.69;6277272;20;2856512;-47
2022/03/28 05:23:03;;;;;;;;;78.67;59.00;;;;;2.50;65.85;100572.00;6280991;20;2888989;-48
2022/03/28 05:25:31;;;;;;;;;70.50;56.00;;;;;2.62;65.27;100577.16;6312461;20;2864867;-48
2022/03/28 05:27:59;;;;;;;;;22.00;9.00;;;;;2.44;66.35;100577.41;6282814;20;2807555;-50
2022/03/28 05:30:29;;;;;;;;;63.00;49.50;;;;;2.30;67.14;100578.47;6310097;20;2855604;-49
2022/03/28 05:32:57;;;;;;;;;44.50;37.50;;;;;3.04;64.21;100577.38;6277560;20;2506546;-49
2022/03/28 05:35:26;;;;;;;;;60.00;49.00;;;;;3.41;62.81;100576.75;6279779;20;2854431;-47
2022/03/28 05:37:54;;;;;;;;;52.50;45.00;;;;;3.29;62.71;100576.06;6277191;20;2487758;-47
2022/03/28 05:40:23;;;;;;;;;56.50;46.00;;;;;3.46;61.84;100569.59;6276074;20;2871066;-49
2022/03/28 05:42:52;;;;;;;;;58.50;46.50;;;;;3.39;63.49;100578.56;6279908;20;2859662;-48
2022/03/28 05:45:21;;;;;;;;;63.00;45.67;;;;;3.37;62.79;100575.94;6281401;20;2865898;-51
2022/03/28 05:47:50;;;;;;;;;50.00;45.00;;;;;4.42;57.71;100573.84;6312194;20;2872301;-50
2022/03/28 05:50:20;;;;;;;;;72.33;53.00;;;;;4.85;56.14;100573.75;6278363;20;2889973;-49
2022/03/28 05:52:49;;;;;;;;;75.33;51.67;;;;;4.82;56.77;100573.84;6312046;20;3648135;-49
2022/03/28 05:55:18;;;;;;;;;65.50;48.50;;;;;4.47;58.11;100578.16;6311485;20;2866978;-56
2022/03/28 05:57:48;;;;;;;;;59.67;46.33;;;;;4.91;56.51;100573.59;6277577;20;2885938;-55
2022/03/28 06:00:20;;;;;;;;;53.67;39.00;;;;;4.71;56.59;100560.75;6310469;20;2873368;-54
2022/03/28 06:02:49;;;;;;;;;50.67;37.00;;;;;5.87;55.44;100556.91;6313113;20;3636709;-53
2022/03/28 06:05:23;;;;;;;;;41.50;37.00;;;;;7.13;51.68;100569.03;6310552;20;2852367;-56
2022/03/28 06:07:51;;;;;;;;;44.50;38.50;;;;;7.29;50.89;100576.56;6282626;20;2859682;-55
2022/03/28 06:10:21;;;;;;;;;37.67;27.00;;;;;6.73;52.63;100575.69;6279094;20;2870118;-47
2022/03/28 06:12:51;;;;;;;;;43.00;34.00;;;;;5.78;55.46;100574.91;6312835;20;2873183;-48
2022/03/28 06:15:20;;;;;;;;;35.00;25.00;;;;;5.63;55.58;100569.06;6314031;20;2863855;-47
2022/03/28 06:17:50;;;;;;;;;35.50;34.00;;;;;5.85;54.83;100572.03;6284709;20;2858569;-47
2022/03/28 06:20:19;;;;;;;;;56.50;44.00;;;;;6.46;51.19;100574.75;6281238;20;2875286;-47
2022/03/28 06:22:48;;;;;;;;;54.00;42.00;;;;;6.55;50.44;100574.44;6284967;20;2859695;-45
2022/03/28 06:25:17;;;;;;;;;36.00;31.00;;;;;7.22;47.32;100574.09;6282845;20;2861121;-46
2022/03/28 06:28:01;;;;;;;;;33.00;30.33;;;;;8.55;45.72;100571.06;6283952;20;2855460;-46
2022/03/28 06:30:30;;;;;;;;;50.33;38.00;;;;;8.56;44.06;100570.16;6313306;20;2861798;-50
2022/03/28 06:32:59;;;;;;;;;49.00;34.00;;;;;10.19;41.44;100581.16;6318802;20;2749223;-47
2022/03/28 06:35:28;;;;;;;;;30.50;28.50;;;;;9.28;41.10;100577.06;6285935;20;2856569;-49
2022/03/28 06:37:57;;;;;;;;;31.00;29.00;;;;;8.00;43.35;100575.81;6289361;20;3606521;-51
2022/03/28 06:40:27;;;;;;;;;29.50;25.00;;;;;7.99;43.49;100573.22;6317278;20;2851432;-46
2022/03/28 06:42:55;;;;;;;;;28.50;24.50;;;;;7.82;44.22;100579.16;6287640;20;2500288;-50
2022/03/28 06:45:23;;;;;;;;;31.50;30.00;;;;;8.16;44.28;100578.78;6286075;20;2500240;-49
2022/03/28 06:47:52;;;;;;;;;20.50;19.00;;;;;8.29;42.39;100572.06;6288609;20;2500269;-49
2022/03/28 06:50:25;;;;;;;;;33.00;26.00;;;;;8.82;42.35;100576.31;6287199;20;2854432;-49
2022/03/28 06:52:55;;;;;;;;;28.50;23.00;;;;;9.17;41.41;100574.84;6290865;20;2854451;-48
2022/03/28 06:55:23;;;;;;;;;30.00;24.00;;;;;9.19;41.71;100577.47;6288003;20;2855447;-49
2022/03/28 06:57:52;;;;;;;;;29.67;25.00;;;;;9.30;41.17;100575.22;6288114;20;3570096;-45
2022/03/28 07:00:21;;;;;;;;;29.00;24.00;;;;;9.30;40.18;100563.63;6285036;20;2842959;-47
2022/03/28 07:02:50;;;;;;;;;34.50;25.00;;;;;9.62;40.39;100568.47;6288579;20;2864022;-48
2022/03/28 07:05:19;;;;;;;;;30.67;24.67;;;;;9.73;40.54;100567.13;6288983;20;3575382;-44
2022/03/28 07:07:50;;;;;;;;;28.50;24.50;;;;;9.57;41.49;100561.56;6287011;20;2851325;-45
2022/03/28 07:10:21;;;;;;;;;32.00;25.50;;;;;10.01;41.00;100562.28;6288565;20;2844030;-45
2022/03/28 07:12:54;;;;;;;;;28.50;27.00;;;;;10.04;40.76;100561.28;6289025;20;2852335;-47
2022/03/28 07:15:22;;;;;;;;;24.00;23.00;;;;;10.31;40.16;100554.66;6287159;20;2500229;-45
2022/03/28 07:18:02;;;;;;;;;39.33;27.00;;;;;11.09;39.08;100557.22;6287783;20;3620018;-45
2022/03/28 07:20:31;;;;;;;;;27.50;23.00;;;;;12.01;36.56;100561.44;6317023;20;2845154;-46
2022/03/28 07:23:02;;;;;;;;;32.00;24.50;;;;;13.10;33.60;100559.88;6288809;20;2852407;-44
2022/03/28 07:25:33;;;;;;;;;23.50;19.00;;;;;13.78;33.33;100563.03;6287368;20;2840861;-49
2022/03/28 07:28:12;;;;;;;;;21.50;18.00;;;;;12.50;33.40;100558.75;6287116;20;2825252;-48
2022/03/28 07:30:42;;;;;;;;;25.00;21.00;;;;;12.90;33.96;100564.63;6283394;20;2500269;-47
2022/03/28 07:33:10;;;;;;;;;20.00;18.00;;;;;13.10;33.82;100559.88;6287211;20;2491919;-47
2022/03/28 07:35:39;;;;;;;;;21.50;15.00;;;;;13.29;32.58;100557.88;6287058;20;2496132;-47
2022/03/28 07:38:10;;;;;;;;;19.00;17.50;;;;;13.77;32.05;100561.31;6287231;20;2491936;-44
2022/03/28 07:40:46;;;;;;;;;19.00;15.67;;;;;13.39;32.10;100552.81;6286968;20;3552338;-50
2022/03/28 07:43:13;;;;;;;;;21.00;15.00;;;;;14.30;31.75;100556.25;6286938;20;2496175;-49
2022/03/28 07:45:43;;;;;;;;;15.00;13.33;;;;;14.18;30.64;100557.88;6288687;20;3518961;-49
2022/03/28 07:48:11;;;;;;;;;14.00;12.50;;;;;13.91;28.23;100551.50;6291512;20;2793162;-47
2022/03/28 07:50:40;;;;;;;;;10.67;10.67;;;;;13.99;27.41;100552.75;6288409;20;2793093;-44
2022/03/28 07:53:09;;;;;;;;;15.33;12.67;;;;;14.53;27.75;100560.22;6319075;20;2808711;-45
2022/03/28 07:55:39;;;;;;;;;12.00;10.00;;;;;14.60;26.14;100553.44;6319879;20;2784662;-46
2022/03/28 07:58:12;;;;;;;;;11.67;11.00;;;;;15.02;26.33;100550.75;6286270;20;2794034;-44
2022/03/28 08:00:40;;;;;;;;;15.00;14.00;;;;;15.22;26.21;100554.81;6321466;20;2796114;-46
2022/03/28 08:03:09;;;;;;;;;10.67;10.67;;;;;15.31;26.16;100551.50;6289127;20;3516946;-44
2022/03/28 08:05:37;;;;;;;;;14.00;14.00;;;;;15.52;25.57;100544.63;6319945;20;2796133;-45
2022/03/28 08:08:07;;;;;;;;;12.00;11.33;;;;;15.91;24.60;100545.59;6287254;20;2789940;-44
2022/03/28 08:10:35;;;;;;;;;11.00;9.50;;;;;15.62;24.80;100549.44;6325208;20;2776373;-44
2022/03/28 08:13:03;;;;;;;;;12.50;11.00;;;;;15.24;25.37;100539.34;6293007;20;2794087;-45
2022/03/28 08:15:35;;;;;;;;;16.00;13.33;;;;;15.93;25.75;100538.22;6288804;20;3532628;-45
2022/03/28 08:18:04;;;;;;;;;26.00;15.33;;;;;16.53;24.91;100531.22;6319770;20;3590835;-46
2022/03/28 08:20:32;;;;;;;;;18.50;13.00;;;;;16.14;25.84;100533.13;6287928;20;2800769;-45
2022/03/28 08:23:00;;;;;;;;;15.33;12.67;;;;;16.60;25.03;100532.50;6288155;20;2800508;-45
2022/03/28 08:25:30;;;;;;;;;15.00;12.00;;;;;16.65;25.05;100530.31;6320471;20;2785693;-44
2022/03/28 08:27:59;;;;;;;;;11.00;11.00;;;;;16.67;25.75;100532.94;6288937;20;2787845;-45
2022/03/28 08:30:28;;;;;;;;;14.67;13.00;;;;;16.48;24.48;100535.25;6315471;20;3539867;-44
2022/03/28 08:32:56;;;;;;;;;12.50;11.00;;;;;16.93;25.74;100522.00;6287370;20;2790052;-45
2022/03/28 08:35:27;;;;;;;;;15.00;13.33;;;;;16.78;27.07;100526.75;6286308;20;3524299;-46
2022/03/28 08:37:55;;;;;;;;;17.50;15.50;;;;;17.21;26.65;100526.25;6314647;20;2491945;-48
2022/03/28 08:40:24;;;;;;;;;17.00;12.33;;;;;17.30;26.31;100520.13;6284309;20;3525237;-51
2022/03/28 08:42:53;;;;;;;;;15.00;14.00;;;;;16.75;26.54;100519.69;6289368;20;2799236;-49
2022/03/28 08:45:21;;;;;;;;;19.67;15.00;;;;;17.73;26.99;100509.50;6284609;20;3558563;-49
2022/03/28 08:47:51;;;;;;;;;12.50;10.00;;;;;17.44;25.14;100517.22;6281233;20;2788955;-54
2022/03/28 08:50:43;;;;;;;;;20.33;14.33;;;;;16.96;25.43;100505.53;6286503;20;3553411;-57
2022/03/28 08:53:14;;;;;;;;;15.33;15.33;;;;;17.57;26.96;100511.69;6315804;20;3552337;-56
2022/03/28 08:55:45;;;;;;;;;19.33;15.33;;;;;17.41;25.71;100505.72;6289662;20;2823189;-53
2022/03/28 08:58:14;;;;;;;;;16.50;15.00;;;;;17.65;26.30;100514.69;6312135;20;2491915;-57
2022/03/28 09:00:42;;;;;;;;;17.00;16.00;;;;;18.35;25.98;100507.38;6285412;20;2491963;-56
2022/03/28 09:03:11;;;;;;;;;19.00;16.00;;;;;18.12;25.82;100510.09;6285531;20;2485819;-55
2022/03/28 09:05:47;;;;;;;;;16.00;13.33;;;;;17.44;26.36;100511.78;6285246;20;3540888;-56
2022/03/28 09:08:15;;;;;;;;;17.33;15.67;;;;;18.10;26.45;100509.34;6289208;20;2825256;-56
2022/03/28 09:10:47;;;;;;;;;19.33;17.33;;;;;17.92;26.17;100499.94;6319266;20;2834750;-55
2022/03/28 09:13:17;;;;;;;;;18.67;15.33;;;;;18.10;25.63;100500.34;6317456;20;3548180;-53
2022/03/28 09:15:56;;;;;;;;;19.33;14.00;;;;;18.21;25.96;100487.59;6316626;20;3524205;-56
2022/03/28 09:18:32;;;;;;;;;19.00;15.50;;;;;18.03;26.72;100480.91;6279610;20;2500783;-57
2022/03/28 09:21:16;;;;;;;;;17.67;16.67;;;;;18.47;26.26;100481.91;6283317;20;3560742;-55
2022/03/28 09:23:49;;;;;;;;;18.67;15.00;;;;;18.39;26.51;100476.22;6282890;20;3542934;-55
2022/03/28 09:26:25;;;;;;;;;19.33;18.00;;;;;18.18;26.42;100476.97;6286807;20;3571090;-54
2022/03/28 09:29:00;;;;;;;;;21.50;16.00;;;;;18.05;27.33;100480.81;6281453;20;2491911;-55
2022/03/28 09:31:42;;;;;;;;;14.50;14.00;;;;;18.82;26.65;100478.16;6285850;20;2487782;-56
2022/03/28 09:34:18;;;;;;;;;21.50;20.00;;;;;18.85;26.95;100475.16;6284221;20;2834731;-56
2022/03/28 09:36:55;;;;;;;;;17.33;17.00;;;;;18.30;28.44;100471.53;6288202;20;3571052;-56
2022/03/28 09:39:29;;;;;;;;;17.33;17.33;;;;;18.40;29.19;100472.50;6285462;20;2829448;-54
2022/03/28 09:42:12;;;;;;;;;18.67;16.00;;;;;18.61;29.87;100461.72;6320063;20;3553426;-57
2022/03/28 09:44:48;;;;;;;;;19.50;16.50;;;;;19.02;28.91;100460.16;6315011;20;2837824;-56
2022/03/28 09:47:20;;;;;;;;;18.00;18.00;;;;;19.15;28.72;100466.28;6284215;20;2835666;-55
2022/03/28 09:49:54;;;;;;;;;20.50;18.50;;;;;18.73;28.78;100457.13;6283045;20;2837812;-55
2022/03/28 09:52:26;;;;;;;;;20.33;15.33;;;;;18.94;28.21;100455.34;6282514;20;3548132;-52
2022/03/28 09:55:05;;;;;;;;;15.00;13.00;;;;;18.72;27.82;100449.94;6283068;20;3511799;-55
2022/03/28 09:57:37;;;;;;;;;18.67;15.00;;;;;18.67;27.77;100446.75;6283116;20;3534594;-51
2022/03/28 10:00:13;;;;;;;;;12.33;12.33;;;;;19.38;27.77;100442.53;6282169;20;3532534;-53
2022/03/28 10:02:41;;;;;;;;;14.00;10.00;;;;;19.79;28.98;100440.81;6320477;20;2790936;-51
2022/03/28 10:05:12;;;;;;;;;15.00;10.00;;;;;19.40;28.76;100439.66;6285035;20;2800438;-55
2022/03/28 10:07:41;;;;;;;;;16.00;15.50;;;;;19.60;28.14;100446.13;6321757;20;2825293;-55
2022/03/28 10:10:10;;;;;;;;;23.50;17.50;;;;;19.64;27.43;100429.38;6293861;20;2487890;-54
2022/03/28 10:12:39;;;;;;;;;17.50;15.50;;;;;19.86;27.84;100431.09;6292762;20;2487867;-53
2022/03/28 10:15:09;;;;;;;;;19.00;16.00;;;;;19.72;28.18;100423.25;6293984;20;2823145;-50
2022/03/28 10:17:38;;;;;;;;;21.00;20.00;;;;;19.84;29.95;100414.00;6295253;20;2839836;-56
2022/03/28 10:20:07;;;;;;;;;15.50;12.50;;;;;19.31;30.44;100408.66;6295305;20;2792961;-50
2022/03/28 10:22:57;;;;;;;;;19.00;14.00;;;;;19.68;29.87;100406.31;6296269;20;3532581;-54
2022/03/28 10:25:27;;;;;;;;;17.00;14.50;;;;;19.50;29.15;100402.47;6298513;20;2808710;-54
2022/03/28 10:27:56;;;;;;;;;16.67;15.33;;;;;19.67;29.56;100393.72;6294769;20;3560701;-58
2022/03/28 10:30:30;;;;;;;;;21.67;17.00;;;;;20.43;28.88;100384.19;6290424;20;2496060;-57
2022/03/28 10:33:23;;;;;;;;;16.50;13.50;;;;;20.45;29.14;100379.47;6327945;20;2496101;-58
2022/03/28 10:36:05;;;;;;;;;14.00;14.00;;;;;19.52;30.26;100374.09;6292781;20;3524357;-57
2022/03/28 10:38:34;;;;;;;;;16.33;13.00;;;;;19.85;30.96;100366.69;6324041;20;3524202;-55
2022/03/28 10:41:07;;;;;;;;;15.67;13.00;;;;;20.38;30.16;100358.22;6323557;20;3522119;-58
2022/03/28 10:43:36;;;;;;;;;18.33;14.67;;;;;20.45;30.16;100360.38;6294372;20;3536668;-58
2022/03/28 10:46:10;;;;;;;;;14.33;11.00;;;;;20.10;30.43;100346.25;6327558;20;3512731;-59
2022/03/28 10:48:59;;;;;;;;;11.00;9.00;;;;;20.12;30.84;100357.88;6302386;20;2774237;-59
2022/03/28 10:51:30;;;;;;;;;15.67;14.67;;;;;19.54;31.80;100349.44;6293159;20;3530423;-54
2022/03/28 10:54:06;;;;;;;;;12.67;12.33;;;;;19.85;31.62;100347.63;6294589;20;3528374;-57
2022/03/28 10:56:45;;;;;;;;;17.67;12.67;;;;;20.04;31.01;100335.06;6324720;20;3529400;-56
2022/03/28 10:59:20;;;;;;;;;17.50;15.00;;;;;20.30;30.90;100335.38;6327218;20;2808604;-55
2022/03/28 11:01:52;;;;;;;;;14.00;12.33;;;;;20.49;30.77;100326.38;6294249;20;3520111;-57
2022/03/28 11:04:23;;;;;;;;;16.50;14.50;;;;;20.76;30.37;100331.13;6324449;20;2475332;-54
2022/03/28 11:07:11;;;;;;;;;15.67;12.67;;;;;20.28;31.95;100316.44;6293933;20;3517968;-57
2022/03/28 11:10:10;;;;;;;;;15.00;10.00;;;;;20.29;31.52;100314.56;6292520;20;3514843;-56
2022/03/28 11:12:41;;;;;;;;;16.00;13.67;;;;;20.10;31.17;100313.53;6329250;20;3515927;-57
2022/03/28 11:15:23;;;;;;;;;11.00;10.00;;;;;20.28;31.17;100305.53;6322923;20;3506512;-57
2022/03/28 11:18:07;;;;;;;;;16.00;12.67;;;;;20.12;31.40;100299.75;6325162;20;3531512;-56